sensor_id;sensor_type;location;lat;lon;timestamp;temperature;humidity
13123;DHT22;6627;50.920;12.050;2023-05-29T00:01:55;8.80;99.90
13123;DHT22;6627;50.920;12.050;2023-05-29T00:04:23;8.70;99.90
13123;DHT22;6627;50.920;12.050;2023-05-29T00:06:50;8.70;99.90
13123;DHT22;6627;50.920;12.050;2023-05-29T00:09:18;8.70;99.90
13123;DHT22;6627;50.920;12.050;2023-05-29T00:11:45;8.60;99.90
13123;DHT22;6627;50.920;12.050;2023-05-29T00:14:16;8.70;99.90
13123;DHT22;6627;50.920;12.050;2023-05-29T00:16:46;8.70;99.90
13123;DHT22;6627;50.920;12.050;2023-05-29T00:19:15;8.70;99.90
13123;DHT22;6627;50.920;12.050;2023-05-29T00:21:43;8.60;99.90
13123;DHT22;6627;50.920;12.050;2023-05-29T00:24:13;8.60;99.90
13123;DHT22;6627;50.920;12.050;2023-05-29T00:26:41;8.70;99.90
13123;DHT22;6627;50.920;12.050;2023-05-29T00:29:08;8.60;99.90
13123;DHT22;6627;50.920;12.050;2023-05-29T00:31:35;8.60;99.90
13123;DHT22;6627;50.920;12.050;2023-05-29T00:34:04;8.80;99.90
13123;DHT22;6627;50.920;12.050;2023-05-29T00:36:31;8.70;99.90
13123;DHT22;6627;50.920;12.050;2023-05-29T00:38:58;8.80;99.90
13123;DHT22;6627;50.920;12.050;2023-05-29T00:41:25;8.70;99.90
13123;DHT22;6627;50.920;12.050;2023-05-29T00:43:53;8.70;99.90
13123;DHT22;6627;50.920;12.050;2023-05-29T00:46:20;8.90;99.90
13123;DHT22;6627;50.920;12.050;2023-05-29T00:48:47;9.20;99.90
13123;DHT22;6627;50.920;12.050;2023-05-29T00:51:17;9.00;96.60
13123;DHT22;6627;50.920;12.050;2023-05-29T00:53:45;8.70;99.90
13123;DHT22;6627;50.920;12.050;2023-05-29T00:56:13;8.50;99.90
13123;DHT22;6627;50.920;12.050;2023-05-29T00:58:41;8.80;99.90
13123;DHT22;6627;50.920;12.050;2023-05-29T01:01:08;9.10;99.90
13123;DHT22;6627;50.920;12.050;2023-05-29T01:03:37;8.70;99.90
13123;DHT22;6627;50.920;12.050;2023-05-29T01:06:05;8.50;99.90
13123;DHT22;6627;50.920;12.050;2023-05-29T01:08:35;8.30;99.90
13123;DHT22;6627;50.920;12.050;2023-05-29T01:11:08;8.30;99.90
13123;DHT22;6627;50.920;12.050;2023-05-29T01:13:45;8.30;99.90
13123;DHT22;6627;50.920;12.050;2023-05-29T01:16:19;8.60;99.90
13123;DHT22;6627;50.920;12.050;2023-05-29T01:19:00;8.70;99.90
13123;DHT22;6627;50.920;12.050;2023-05-29T01:21:46;8.50;53.40
13123;DHT22;6627;50.920;12.050;2023-05-29T01:24:36;8.10;99.90
13123;DHT22;6627;50.920;12.050;2023-05-29T01:27:15;7.80;99.90
13123;DHT22;6627;50.920;12.050;2023-05-29T01:29:45;7.70;99.90
13123;DHT22;6627;50.920;12.050;2023-05-29T01:32:14;8.00;99.90
13123;DHT22;6627;50.920;12.050;2023-05-29T01:34:41;7.90;99.90
13123;DHT22;6627;50.920;12.050;2023-05-29T01:37:08;7.70;99.90
13123;DHT22;6627;50.920;12.050;2023-05-29T01:39:36;7.70;99.90
13123;DHT22;6627;50.920;12.050;2023-05-29T01:42:04;7.50;99.90
13123;DHT22;6627;50.920;12.050;2023-05-29T01:44:34;7.50;99.90
13123;DHT22;6627;50.920;12.050;2023-05-29T01:47:03;7.60;99.90
13123;DHT22;6627;50.920;12.050;2023-05-29T01:49:32;7.70;99.90
13123;DHT22;6627;50.920;12.050;2023-05-29T01:51:59;7.40;99.90
13123;DHT22;6627;50.920;12.050;2023-05-29T01:54:27;7.30;99.90
13123;DHT22;6627;50.920;12.050;2023-05-29T01:56:55;7.10;99.90
13123;DHT22;6627;50.920;12.050;2023-05-29T01:59:23;7.00;99.90
13123;DHT22;6627;50.920;12.050;2023-05-29T02:01:53;7.10;99.90
13123;DHT22;6627;50.920;12.050;2023-05-29T02:04:20;7.00;99.90
13123;DHT22;6627;50.920;12.050;2023-05-29T02:06:48;7.00;99.90
13123;DHT22;6627;50.920;12.050;2023-05-29T02:09:17;7.00;99.90
13123;DHT22;6627;50.920;12.050;2023-05-29T02:11:44;6.90;99.90
13123;DHT22;6627;50.920;12.050;2023-05-29T02:14:11;6.90;99.90
13123;DHT22;6627;50.920;12.050;2023-05-29T02:16:38;6.80;99.90
13123;DHT22;6627;50.920;12.050;2023-05-29T02:19:08;6.90;99.90
13123;DHT22;6627;50.920;12.050;2023-05-29T02:21:38;6.80;99.90
13123;DHT22;6627;50.920;12.050;2023-05-29T02:24:06;6.80;99.90
13123;DHT22;6627;50.920;12.050;2023-05-29T02:26:34;6.90;99.90
13123;DHT22;6627;50.920;12.050;2023-05-29T02:29:02;7.00;99.90
13123;DHT22;6627;50.920;12.050;2023-05-29T02:31:31;6.90;99.90
13123;DHT22;6627;50.920;12.050;2023-05-29T02:33:58;6.80;99.90
13123;DHT22;6627;50.920;12.050;2023-05-29T02:36:27;6.70;99.90
13123;DHT22;6627;50.920;12.050;2023-05-29T02:38:54;6.70;99.90
13123;DHT22;6627;50.920;12.050;2023-05-29T02:41:22;6.60;99.90
13123;DHT22;6627;50.920;12.050;2023-05-29T02:43:50;6.60;99.90
13123;DHT22;6627;50.920;12.050;2023-05-29T02:46:17;6.60;99.90
13123;DHT22;6627;50.920;12.050;2023-05-29T02:48:45;6.70;99.90
13123;DHT22;6627;50.920;12.050;2023-05-29T02:51:13;6.70;99.90
13123;DHT22;6627;50.920;12.050;2023-05-29T02:53:41;6.50;99.90
13123;DHT22;6627;50.920;12.050;2023-05-29T02:56:13;6.60;99.90
13123;DHT22;6627;50.920;12.050;2023-05-29T02:58:41;7.00;99.90
13123;DHT22;6627;50.920;12.050;2023-05-29T03:01:08;6.80;99.90
13123;DHT22;6627;50.920;12.050;2023-05-29T03:03:36;6.60;99.90
13123;DHT22;6627;50.920;12.050;2023-05-29T03:06:04;6.50;99.90
13123;DHT22;6627;50.920;12.050;2023-05-29T03:08:32;6.40;99.90
13123;DHT22;6627;50.920;12.050;2023-05-29T03:11:00;6.30;99.90
13123;DHT22;6627;50.920;12.050;2023-05-29T03:13:28;6.30;99.90
13123;DHT22;6627;50.920;12.050;2023-05-29T03:15:55;6.40;99.90
13123;DHT22;6627;50.920;12.050;2023-05-29T03:18:22;6.40;99.90
13123;DHT22;6627;50.920;12.050;2023-05-29T03:20:50;6.30;99.90
13123;DHT22;6627;50.920;12.050;2023-05-29T03:23:17;6.20;99.90
13123;DHT22;6627;50.920;12.050;2023-05-29T03:25:44;6.30;99.90
13123;DHT22;6627;50.920;12.050;2023-05-29T03:28:13;6.30;99.90
13123;DHT22;6627;50.920;12.050;2023-05-29T03:30:40;6.30;99.90
13123;DHT22;6627;50.920;12.050;2023-05-29T03:33:07;6.30;99.90
13123;DHT22;6627;50.920;12.050;2023-05-29T03:35:35;6.30;99.90
13123;DHT22;6627;50.920;12.050;2023-05-29T03:38:02;6.40;99.90
13123;DHT22;6627;50.920;12.050;2023-05-29T03:40:30;6.50;99.90
13123;DHT22;6627;50.920;12.050;2023-05-29T03:42:57;6.30;99.90
13123;DHT22;6627;50.920;12.050;2023-05-29T03:45:26;6.60;99.90
13123;DHT22;6627;50.920;12.050;2023-05-29T03:47:54;6.70;99.90
13123;DHT22;6627;50.920;12.050;2023-05-29T03:50:21;6.60;99.90
13123;DHT22;6627;50.920;12.050;2023-05-29T03:52:48;6.40;99.90
13123;DHT22;6627;50.920;12.050;2023-05-29T03:55:16;6.60;99.90
13123;DHT22;6627;50.920;12.050;2023-05-29T03:57:43;6.80;99.90
13123;DHT22;6627;50.920;12.050;2023-05-29T04:00:11;6.70;99.90
13123;DHT22;6627;50.920;12.050;2023-05-29T04:02:41;6.60;99.90
13123;DHT22;6627;50.920;12.050;2023-05-29T04:07:36;7.00;99.90
13123;DHT22;6627;50.920;12.050;2023-05-29T04:10:05;6.90;99.90
13123;DHT22;6627;50.920;12.050;2023-05-29T04:12:33;6.70;99.90
13123;DHT22;6627;50.920;12.050;2023-05-29T04:15:01;6.80;99.90
13123;DHT22;6627;50.920;12.050;2023-05-29T04:17:28;7.00;99.90
13123;DHT22;6627;50.920;12.050;2023-05-29T04:19:57;6.90;99.90
13123;DHT22;6627;50.920;12.050;2023-05-29T04:22:25;6.70;99.90
13123;DHT22;6627;50.920;12.050;2023-05-29T04:24:52;6.80;99.90
13123;DHT22;6627;50.920;12.050;2023-05-29T04:27:19;7.10;99.90
13123;DHT22;6627;50.920;12.050;2023-05-29T04:29:46;7.40;99.90
13123;DHT22;6627;50.920;12.050;2023-05-29T04:32:14;7.40;99.90
13123;DHT22;6627;50.920;12.050;2023-05-29T04:34:41;7.30;99.90
13123;DHT22;6627;50.920;12.050;2023-05-29T04:37:11;7.40;99.90
13123;DHT22;6627;50.920;12.050;2023-05-29T04:39:39;7.30;99.90
13123;DHT22;6627;50.920;12.050;2023-05-29T04:42:06;7.20;99.90
13123;DHT22;6627;50.920;12.050;2023-05-29T04:44:33;7.20;99.90
13123;DHT22;6627;50.920;12.050;2023-05-29T04:47:01;7.40;99.90
13123;DHT22;6627;50.920;12.050;2023-05-29T04:49:29;7.30;99.90
13123;DHT22;6627;50.920;12.050;2023-05-29T04:51:56;7.30;99.90
13123;DHT22;6627;50.920;12.050;2023-05-29T04:54:27;7.20;99.90
13123;DHT22;6627;50.920;12.050;2023-05-29T04:56:55;7.30;99.90
13123;DHT22;6627;50.920;12.050;2023-05-29T04:59:22;7.60;99.90
13123;DHT22;6627;50.920;12.050;2023-05-29T05:01:49;7.60;99.90
13123;DHT22;6627;50.920;12.050;2023-05-29T05:04:17;7.70;99.90
13123;DHT22;6627;50.920;12.050;2023-05-29T05:06:44;7.90;99.90
13123;DHT22;6627;50.920;12.050;2023-05-29T05:09:11;8.00;99.90
13123;DHT22;6627;50.920;12.050;2023-05-29T05:11:39;8.50;99.90
13123;DHT22;6627;50.920;12.050;2023-05-29T05:14:06;8.60;99.90
13123;DHT22;6627;50.920;12.050;2023-05-29T05:16:34;8.80;99.90
13123;DHT22;6627;50.920;12.050;2023-05-29T05:19:01;8.90;99.90
13123;DHT22;6627;50.920;12.050;2023-05-29T05:21:29;9.20;99.90
13123;DHT22;6627;50.920;12.050;2023-05-29T05:23:57;9.20;99.90
13123;DHT22;6627;50.920;12.050;2023-05-29T05:26:25;9.30;99.90
13123;DHT22;6627;50.920;12.050;2023-05-29T05:28:54;9.30;99.90
13123;DHT22;6627;50.920;12.050;2023-05-29T05:31:21;9.40;99.90
13123;DHT22;6627;50.920;12.050;2023-05-29T05:33:49;9.60;99.90
13123;DHT22;6627;50.920;12.050;2023-05-29T05:36:16;9.80;99.90
13123;DHT22;6627;50.920;12.050;2023-05-29T05:38:44;10.00;99.90
13123;DHT22;6627;50.920;12.050;2023-05-29T05:41:11;10.00;99.90
13123;DHT22;6627;50.920;12.050;2023-05-29T05:43:39;10.00;99.90
13123;DHT22;6627;50.920;12.050;2023-05-29T05:46:07;10.10;99.90
13123;DHT22;6627;50.920;12.050;2023-05-29T05:48:34;10.30;99.90
13123;DHT22;6627;50.920;12.050;2023-05-29T05:51:02;10.40;99.90
13123;DHT22;6627;50.920;12.050;2023-05-29T05:53:29;10.60;99.90
13123;DHT22;6627;50.920;12.050;2023-05-29T05:55:57;10.80;99.90
13123;DHT22;6627;50.920;12.050;2023-05-29T05:58:24;11.00;99.90
13123;DHT22;6627;50.920;12.050;2023-05-29T06:00:52;11.20;99.90
13123;DHT22;6627;50.920;12.050;2023-05-29T06:03:20;11.50;99.90
13123;DHT22;6627;50.920;12.050;2023-05-29T06:05:47;11.60;99.90
13123;DHT22;6627;50.920;12.050;2023-05-29T06:08:16;11.80;99.90
13123;DHT22;6627;50.920;12.050;2023-05-29T06:10:43;12.00;99.90
13123;DHT22;6627;50.920;12.050;2023-05-29T06:13:11;12.20;99.90
13123;DHT22;6627;50.920;12.050;2023-05-29T06:15:39;12.60;99.90
13123;DHT22;6627;50.920;12.050;2023-05-29T06:18:06;12.90;99.90
13123;DHT22;6627;50.920;12.050;2023-05-29T06:20:34;13.10;99.90
13123;DHT22;6627;50.920;12.050;2023-05-29T06:23:02;13.20;99.90
13123;DHT22;6627;50.920;12.050;2023-05-29T06:27:59;13.50;99.90
13123;DHT22;6627;50.920;12.050;2023-05-29T06:30:26;13.90;99.90
13123;DHT22;6627;50.920;12.050;2023-05-29T06:32:53;13.80;99.90
13123;DHT22;6627;50.920;12.050;2023-05-29T06:35:21;14.20;99.90
13123;DHT22;6627;50.920;12.050;2023-05-29T06:37:49;14.40;99.90
13123;DHT22;6627;50.920;12.050;2023-05-29T06:40:17;14.50;99.90
13123;DHT22;6627;50.920;12.050;2023-05-29T06:42:44;14.50;99.90
13123;DHT22;6627;50.920;12.050;2023-05-29T06:45:12;14.90;99.90
13123;DHT22;6627;50.920;12.050;2023-05-29T06:47:41;15.00;99.90
13123;DHT22;6627;50.920;12.050;2023-05-29T06:50:09;15.40;99.90
13123;DHT22;6627;50.920;12.050;2023-05-29T06:52:42;15.50;99.90
13123;DHT22;6627;50.920;12.050;2023-05-29T06:55:11;15.60;99.90
13123;DHT22;6627;50.920;12.050;2023-05-29T06:57:38;15.60;99.90
13123;DHT22;6627;50.920;12.050;2023-05-29T07:00:06;15.80;99.90
13123;DHT22;6627;50.920;12.050;2023-05-29T07:02:34;16.30;99.90
13123;DHT22;6627;50.920;12.050;2023-05-29T07:05:03;16.20;99.90
13123;DHT22;6627;50.920;12.050;2023-05-29T07:07:31;16.40;99.90
13123;DHT22;6627;50.920;12.050;2023-05-29T07:09:59;16.50;99.90
13123;DHT22;6627;50.920;12.050;2023-05-29T07:12:27;16.50;99.90
13123;DHT22;6627;50.920;12.050;2023-05-29T07:14:54;16.30;99.90
13123;DHT22;6627;50.920;12.050;2023-05-29T07:17:22;16.70;6.60
13123;DHT22;6627;50.920;12.050;2023-05-29T07:19:49;16.90;1.00
13123;DHT22;6627;50.920;12.050;2023-05-29T07:22:16;17.00;1.00
13123;DHT22;6627;50.920;12.050;2023-05-29T07:24:43;17.50;63.60
13123;DHT22;6627;50.920;12.050;2023-05-29T07:27:12;17.60;99.90
13123;DHT22;6627;50.920;12.050;2023-05-29T07:32:08;17.70;1.00
13123;DHT22;6627;50.920;12.050;2023-05-29T07:34:36;17.50;99.90
13123;DHT22;6627;50.920;12.050;2023-05-29T07:37:06;17.80;1.00
13123;DHT22;6627;50.920;12.050;2023-05-29T07:39:35;17.40;99.90
13123;DHT22;6627;50.920;12.050;2023-05-29T07:42:02;17.80;1.00
13123;DHT22;6627;50.920;12.050;2023-05-29T07:44:31;18.20;99.90
13123;DHT22;6627;50.920;12.050;2023-05-29T07:46:59;18.30;99.90
13123;DHT22;6627;50.920;12.050;2023-05-29T07:49:27;18.80;99.90
13123;DHT22;6627;50.920;12.050;2023-05-29T07:51:54;18.80;1.00
13123;DHT22;6627;50.920;12.050;2023-05-29T07:54:21;19.00;99.90
13123;DHT22;6627;50.920;12.050;2023-05-29T07:56:48;18.60;1.00
13123;DHT22;6627;50.920;12.050;2023-05-29T07:59:16;19.00;1.00
13123;DHT22;6627;50.920;12.050;2023-05-29T08:01:44;18.80;99.90
13123;DHT22;6627;50.920;12.050;2023-05-29T08:04:12;19.40;99.90
13123;DHT22;6627;50.920;12.050;2023-05-29T08:06:39;19.50;55.90
13123;DHT22;6627;50.920;12.050;2023-05-29T08:09:08;19.10;1.00
13123;DHT22;6627;50.920;12.050;2023-05-29T08:11:36;19.60;1.00
13123;DHT22;6627;50.920;12.050;2023-05-29T08:14:03;19.30;99.90
13123;DHT22;6627;50.920;12.050;2023-05-29T08:16:31;19.10;55.60
13123;DHT22;6627;50.920;12.050;2023-05-29T08:18:58;19.90;61.20
13123;DHT22;6627;50.920;12.050;2023-05-29T08:21:27;19.80;1.00
13123;DHT22;6627;50.920;12.050;2023-05-29T08:23:54;19.60;1.00
13123;DHT22;6627;50.920;12.050;2023-05-29T08:26:21;20.00;99.90
13123;DHT22;6627;50.920;12.050;2023-05-29T08:28:48;20.00;99.90
13123;DHT22;6627;50.920;12.050;2023-05-29T08:31:15;19.70;79.10
13123;DHT22;6627;50.920;12.050;2023-05-29T08:33:43;19.80;1.00
13123;DHT22;6627;50.920;12.050;2023-05-29T08:36:10;19.90;1.00
13123;DHT22;6627;50.920;12.050;2023-05-29T08:38:39;20.10;1.00
13123;DHT22;6627;50.920;12.050;2023-05-29T08:41:07;20.20;1.00
13123;DHT22;6627;50.920;12.050;2023-05-29T08:43:35;20.10;1.00
13123;DHT22;6627;50.920;12.050;2023-05-29T08:46:04;20.20;99.90
13123;DHT22;6627;50.920;12.050;2023-05-29T08:48:36;20.40;99.90
13123;DHT22;6627;50.920;12.050;2023-05-29T08:51:07;20.30;99.90
13123;DHT22;6627;50.920;12.050;2023-05-29T08:53:38;20.50;99.90
13123;DHT22;6627;50.920;12.050;2023-05-29T08:56:07;20.60;24.30
13123;DHT22;6627;50.920;12.050;2023-05-29T08:58:35;20.20;1.00
13123;DHT22;6627;50.920;12.050;2023-05-29T09:01:02;20.40;1.00
13123;DHT22;6627;50.920;12.050;2023-05-29T09:03:29;20.60;1.00
13123;DHT22;6627;50.920;12.050;2023-05-29T09:05:58;20.50;1.00
13123;DHT22;6627;50.920;12.050;2023-05-29T09:08:26;20.70;1.00
13123;DHT22;6627;50.920;12.050;2023-05-29T09:10:55;20.70;1.00
13123;DHT22;6627;50.920;12.050;2023-05-29T09:13:23;20.80;99.90
13123;DHT22;6627;50.920;12.050;2023-05-29T09:15:53;20.80;99.90
13123;DHT22;6627;50.920;12.050;2023-05-29T09:18:27;20.80;99.90
13123;DHT22;6627;50.920;12.050;2023-05-29T09:20:55;20.90;99.90
13123;DHT22;6627;50.920;12.050;2023-05-29T09:23:24;20.90;99.90
13123;DHT22;6627;50.920;12.050;2023-05-29T09:28:22;21.00;6.40
13123;DHT22;6627;50.920;12.050;2023-05-29T09:30:52;20.90;1.00
13123;DHT22;6627;50.920;12.050;2023-05-29T09:33:19;21.20;1.00
13123;DHT22;6627;50.920;12.050;2023-05-29T09:35:48;21.10;1.00
13123;DHT22;6627;50.920;12.050;2023-05-29T09:38:17;21.20;1.00
13123;DHT22;6627;50.920;12.050;2023-05-29T09:40:46;20.90;1.00
13123;DHT22;6627;50.920;12.050;2023-05-29T09:43:15;20.90;1.00
13123;DHT22;6627;50.920;12.050;2023-05-29T09:45:44;21.20;1.00
13123;DHT22;6627;50.920;12.050;2023-05-29T09:48:14;21.30;1.00
13123;DHT22;6627;50.920;12.050;2023-05-29T09:50:43;21.30;1.00
13123;DHT22;6627;50.920;12.050;2023-05-29T09:53:17;21.40;1.00
13123;DHT22;6627;50.920;12.050;2023-05-29T09:55:46;21.10;99.90
13123;DHT22;6627;50.920;12.050;2023-05-29T09:58:16;21.30;99.90
13123;DHT22;6627;50.920;12.050;2023-05-29T10:00:45;21.50;99.90
13123;DHT22;6627;50.920;12.050;2023-05-29T10:03:13;21.70;99.90
13123;DHT22;6627;50.920;12.050;2023-05-29T10:05:40;21.60;99.90
13123;DHT22;6627;50.920;12.050;2023-05-29T10:08:11;21.80;99.90
13123;DHT22;6627;50.920;12.050;2023-05-29T10:10:40;21.70;99.90
13123;DHT22;6627;50.920;12.050;2023-05-29T10:13:11;21.90;99.90
13123;DHT22;6627;50.920;12.050;2023-05-29T10:15:42;21.70;99.90
13123;DHT22;6627;50.920;12.050;2023-05-29T10:18:16;21.90;99.90
13123;DHT22;6627;50.920;12.050;2023-05-29T10:20:49;22.00;99.90
13123;DHT22;6627;50.920;12.050;2023-05-29T10:23:20;22.20;99.90
13123;DHT22;6627;50.920;12.050;2023-05-29T10:25:52;22.40;99.90
13123;DHT22;6627;50.920;12.050;2023-05-29T10:28:21;22.50;99.90
13123;DHT22;6627;50.920;12.050;2023-05-29T10:30:54;22.10;99.90
13123;DHT22;6627;50.920;12.050;2023-05-29T10:33:38;22.10;99.90
13123;DHT22;6627;50.920;12.050;2023-05-29T10:36:18;22.40;80.10
13123;DHT22;6627;50.920;12.050;2023-05-29T10:38:48;22.40;16.10
13123;DHT22;6627;50.920;12.050;2023-05-29T10:41:29;22.20;1.00
13123;DHT22;6627;50.920;12.050;2023-05-29T10:44:37;22.40;1.00
13123;DHT22;6627;50.920;12.050;2023-05-29T10:47:08;22.30;1.00
13123;DHT22;6627;50.920;12.050;2023-05-29T10:49:38;22.60;1.00
13123;DHT22;6627;50.920;12.050;2023-05-29T10:52:06;22.50;1.00
13123;DHT22;6627;50.920;12.050;2023-05-29T10:54:49;22.60;1.00
13123;DHT22;6627;50.920;12.050;2023-05-29T10:57:21;22.80;1.00
13123;DHT22;6627;50.920;12.050;2023-05-29T10:59:58;22.70;1.00
13123;DHT22;6627;50.920;12.050;2023-05-29T11:05:05;22.50;1.00
13123;DHT22;6627;50.920;12.050;2023-05-29T11:07:55;22.50;1.00
13123;DHT22;6627;50.920;12.050;2023-05-29T11:10:42;22.40;1.00
13123;DHT22;6627;50.920;12.050;2023-05-29T11:13:24;22.60;1.00
13123;DHT22;6627;50.920;12.050;2023-05-29T11:16:19;22.20;1.00
13123;DHT22;6627;50.920;12.050;2023-05-29T11:19:06;22.60;1.00
13123;DHT22;6627;50.920;12.050;2023-05-29T11:21:49;22.70;1.00
13123;DHT22;6627;50.920;12.050;2023-05-29T11:24:25;22.60;1.00
13123;DHT22;6627;50.920;12.050;2023-05-29T11:26:56;22.40;1.00
13123;DHT22;6627;50.920;12.050;2023-05-29T11:29:30;22.50;1.00
13123;DHT22;6627;50.920;12.050;2023-05-29T11:32:02;22.70;1.00
13123;DHT22;6627;50.920;12.050;2023-05-29T11:34:32;22.70;1.00
13123;DHT22;6627;50.920;12.050;2023-05-29T11:37:02;22.90;1.00
13123;DHT22;6627;50.920;12.050;2023-05-29T11:39:30;22.80;1.00
13123;DHT22;6627;50.920;12.050;2023-05-29T11:41:57;23.00;1.00
13123;DHT22;6627;50.920;12.050;2023-05-29T11:44:27;23.30;1.00
13123;DHT22;6627;50.920;12.050;2023-05-29T11:47:00;23.20;1.00
13123;DHT22;6627;50.920;12.050;2023-05-29T11:49:29;23.00;1.00
13123;DHT22;6627;50.920;12.050;2023-05-29T11:54:34;23.10;1.00
13123;DHT22;6627;50.920;12.050;2023-05-29T11:57:02;23.10;1.00
13123;DHT22;6627;50.920;12.050;2023-05-29T11:59:31;23.30;99.90
13123;DHT22;6627;50.920;12.050;2023-05-29T12:04:29;23.40;99.90
13123;DHT22;6627;50.920;12.050;2023-05-29T12:06:56;23.40;99.90
13123;DHT22;6627;50.920;12.050;2023-05-29T12:09:29;23.40;99.90
13123;DHT22;6627;50.920;12.050;2023-05-29T12:12:01;23.40;99.90
13123;DHT22;6627;50.920;12.050;2023-05-29T12:14:29;23.40;99.90
13123;DHT22;6627;50.920;12.050;2023-05-29T12:16:57;23.20;99.90
13123;DHT22;6627;50.920;12.050;2023-05-29T12:21:52;23.00;99.90
13123;DHT22;6627;50.920;12.050;2023-05-29T12:24:19;23.20;99.90
13123;DHT22;6627;50.920;12.050;2023-05-29T12:26:47;23.20;99.90
13123;DHT22;6627;50.920;12.050;2023-05-29T12:29:15;23.30;99.90
13123;DHT22;6627;50.920;12.050;2023-05-29T12:31:42;23.40;99.90
13123;DHT22;6627;50.920;12.050;2023-05-29T12:34:11;23.10;99.90
13123;DHT22;6627;50.920;12.050;2023-05-29T12:39:08;23.00;99.90
13123;DHT22;6627;50.920;12.050;2023-05-29T12:41:37;23.10;99.90
13123;DHT22;6627;50.920;12.050;2023-05-29T12:44:07;23.20;99.90
13123;DHT22;6627;50.920;12.050;2023-05-29T12:46:36;23.10;99.90
13123;DHT22;6627;50.920;12.050;2023-05-29T12:49:12;23.20;99.90
13123;DHT22;6627;50.920;12.050;2023-05-29T12:51:41;23.40;99.90
13123;DHT22;6627;50.920;12.050;2023-05-29T12:54:10;23.60;99.90
13123;DHT22;6627;50.920;12.050;2023-05-29T12:56:37;23.80;99.90
13123;DHT22;6627;50.920;12.050;2023-05-29T12:59:07;23.30;99.90
13123;DHT22;6627;50.920;12.050;2023-05-29T13:01:36;23.30;99.90
13123;DHT22;6627;50.920;12.050;2023-05-29T13:04:04;23.40;99.90
13123;DHT22;6627;50.920;12.050;2023-05-29T13:06:32;23.50;99.90
13123;DHT22;6627;50.920;12.050;2023-05-29T13:08:59;23.10;99.90
13123;DHT22;6627;50.920;12.050;2023-05-29T13:11:27;23.10;99.90
13123;DHT22;6627;50.920;12.050;2023-05-29T13:13:54;22.90;99.90
13123;DHT22;6627;50.920;12.050;2023-05-29T13:16:23;22.50;99.90
13123;DHT22;6627;50.920;12.050;2023-05-29T13:18:51;22.50;99.90
13123;DHT22;6627;50.920;12.050;2023-05-29T13:21:19;22.50;99.90
13123;DHT22;6627;50.920;12.050;2023-05-29T13:23:47;22.30;99.90
13123;DHT22;6627;50.920;12.050;2023-05-29T13:26:14;22.20;99.90
13123;DHT22;6627;50.920;12.050;2023-05-29T13:28:45;22.20;99.90
13123;DHT22;6627;50.920;12.050;2023-05-29T13:31:13;22.50;99.90
13123;DHT22;6627;50.920;12.050;2023-05-29T13:33:42;22.70;99.90
13123;DHT22;6627;50.920;12.050;2023-05-29T13:36:09;22.70;99.90
13123;DHT22;6627;50.920;12.050;2023-05-29T13:41:09;23.30;99.90
13123;DHT22;6627;50.920;12.050;2023-05-29T13:43:37;23.00;99.90
13123;DHT22;6627;50.920;12.050;2023-05-29T13:46:04;23.10;99.90
13123;DHT22;6627;50.920;12.050;2023-05-29T13:48:31;23.00;99.90
13123;DHT22;6627;50.920;12.050;2023-05-29T13:51:01;22.70;99.90
13123;DHT22;6627;50.920;12.050;2023-05-29T13:53:28;22.50;99.90
13123;DHT22;6627;50.920;12.050;2023-05-29T13:55:55;22.30;99.90
13123;DHT22;6627;50.920;12.050;2023-05-29T13:58:22;22.30;99.90
13123;DHT22;6627;50.920;12.050;2023-05-29T14:00:49;22.30;99.90
13123;DHT22;6627;50.920;12.050;2023-05-29T14:03:17;22.00;99.90
13123;DHT22;6627;50.920;12.050;2023-05-29T14:05:44;22.10;99.90
13123;DHT22;6627;50.920;12.050;2023-05-29T14:08:13;22.10;99.90
13123;DHT22;6627;50.920;12.050;2023-05-29T14:10:40;22.10;99.90
13123;DHT22;6627;50.920;12.050;2023-05-29T14:13:07;22.30;99.90
13123;DHT22;6627;50.920;12.050;2023-05-29T14:15:34;22.30;99.90
13123;DHT22;6627;50.920;12.050;2023-05-29T14:18:02;22.40;99.90
13123;DHT22;6627;50.920;12.050;2023-05-29T14:20:29;22.10;99.90
13123;DHT22;6627;50.920;12.050;2023-05-29T14:22:56;22.20;99.90
13123;DHT22;6627;50.920;12.050;2023-05-29T14:25:24;22.40;99.90
13123;DHT22;6627;50.920;12.050;2023-05-29T14:27:52;22.60;99.90
13123;DHT22;6627;50.920;12.050;2023-05-29T14:30:19;22.70;99.90
13123;DHT22;6627;50.920;12.050;2023-05-29T14:32:46;22.80;99.90
13123;DHT22;6627;50.920;12.050;2023-05-29T14:35:14;23.00;99.90
13123;DHT22;6627;50.920;12.050;2023-05-29T14:37:41;23.10;99.90
13123;DHT22;6627;50.920;12.050;2023-05-29T14:40:09;22.80;99.90
13123;DHT22;6627;50.920;12.050;2023-05-29T14:42:39;22.80;99.90
13123;DHT22;6627;50.920;12.050;2023-05-29T14:45:07;22.40;99.90
13123;DHT22;6627;50.920;12.050;2023-05-29T14:47:35;22.40;99.90
13123;DHT22;6627;50.920;12.050;2023-05-29T14:50:02;22.30;99.90
13123;DHT22;6627;50.920;12.050;2023-05-29T14:52:30;22.20;99.90
13123;DHT22;6627;50.920;12.050;2023-05-29T14:54:57;22.20;99.90
13123;DHT22;6627;50.920;12.050;2023-05-29T14:57:25;22.30;99.90
13123;DHT22;6627;50.920;12.050;2023-05-29T14:59:53;22.40;99.90
13123;DHT22;6627;50.920;12.050;2023-05-29T15:02:20;22.10;99.90
13123;DHT22;6627;50.920;12.050;2023-05-29T15:04:48;21.90;99.90
13123;DHT22;6627;50.920;12.050;2023-05-29T15:07:16;22.00;99.90
13123;DHT22;6627;50.920;12.050;2023-05-29T15:09:43;22.00;99.90
13123;DHT22;6627;50.920;12.050;2023-05-29T15:12:10;22.00;99.90
13123;DHT22;6627;50.920;12.050;2023-05-29T15:14:37;21.80;99.90
13123;DHT22;6627;50.920;12.050;2023-05-29T15:17:06;21.70;99.90
13123;DHT22;6627;50.920;12.050;2023-05-29T15:19:33;22.00;99.90
13123;DHT22;6627;50.920;12.050;2023-05-29T15:22:00;22.20;99.90
13123;DHT22;6627;50.920;12.050;2023-05-29T15:24:28;22.10;99.90
13123;DHT22;6627;50.920;12.050;2023-05-29T15:26:55;22.00;99.90
13123;DHT22;6627;50.920;12.050;2023-05-29T15:29:22;22.20;99.90
13123;DHT22;6627;50.920;12.050;2023-05-29T15:31:50;22.20;99.90
13123;DHT22;6627;50.920;12.050;2023-05-29T15:34:18;22.30;99.90
13123;DHT22;6627;50.920;12.050;2023-05-29T15:36:45;22.20;99.90
13123;DHT22;6627;50.920;12.050;2023-05-29T15:39:12;22.40;99.90
13123;DHT22;6627;50.920;12.050;2023-05-29T15:41:40;22.30;99.90
13123;DHT22;6627;50.920;12.050;2023-05-29T15:44:07;22.30;99.90
13123;DHT22;6627;50.920;12.050;2023-05-29T15:46:35;22.40;99.90
13123;DHT22;6627;50.920;12.050;2023-05-29T15:49:02;22.50;99.90
13123;DHT22;6627;50.920;12.050;2023-05-29T15:51:31;22.30;99.90
13123;DHT22;6627;50.920;12.050;2023-05-29T15:53:59;22.30;99.90
13123;DHT22;6627;50.920;12.050;2023-05-29T15:56:26;22.40;99.90
13123;DHT22;6627;50.920;12.050;2023-05-29T15:58:54;22.10;99.90
13123;DHT22;6627;50.920;12.050;2023-05-29T16:01:22;21.80;99.90
13123;DHT22;6627;50.920;12.050;2023-05-29T16:03:49;21.90;99.90
13123;DHT22;6627;50.920;12.050;2023-05-29T16:06:16;21.90;99.90
13123;DHT22;6627;50.920;12.050;2023-05-29T16:08:46;21.70;99.90
13123;DHT22;6627;50.920;12.050;2023-05-29T16:11:13;21.90;99.90
13123;DHT22;6627;50.920;12.050;2023-05-29T16:13:42;22.00;99.90